Time;durP1;ratioP1;P1;durP2;ratioP2;P2;SDS_P1;SDS_P2;PMS_P1;PMS_P2;Temp;Humidity;BMP_temperature;BMP_pressure;BME280_temperature;BME280_humidity;BME280_pressure;Samples;Min_cycle;Max_cycle;Signal;HPM_P1;HPM_P2
2022/08/20 00:01:12;;;;;;;1.98;1.42;;;;;;;;;;5071239;28;20481;-78
2022/08/20 00:03:57;;;;;;;2.55;1.45;;;;;;;;;;5072807;28;20040;-78
2022/08/20 00:06:44;;;;;;;1.45;1.30;;;;;;;;;;5088783;28;20033;-77
2022/08/20 00:09:29;;;;;;;2.50;1.27;;;;;;;;;;5089365;28;20181;-79
2022/08/20 00:12:15;;;;;;;1.20;1.10;;;;;;;;;;5071453;28;20016;-70
2022/08/20 00:15:03;;;;;;;1.75;1.20;;;;;;;;;;5089927;28;20036;-73
2022/08/20 00:17:49;;;;;;;1.67;1.30;;;;;;;;;;5092745;28;20102;-74
2022/08/20 00:20:39;;;;;;;2.72;1.10;;;;;;;;;;5089371;28;20044;-72
2022/08/20 00:23:24;;;;;;;;;;;;;;;;;;5075642;28;20409;-73
2022/08/20 00:26:10;;;;;;;4.90;1.80;;;;;;;;;;5096857;28;19938;-74
2022/08/20 00:28:56;;;;;;;3.53;1.95;;;;;;;;;;5086015;28;20031;-78
2022/08/20 00:31:41;;;;;;;3.10;1.27;;;;;;;;;;5094779;28;20064;-70
2022/08/20 00:34:27;;;;;;;2.00;1.40;;;;;;;;;;5091954;28;20359;-70
2022/08/20 00:37:13;;;;;;;2.35;1.40;;;;;;;;;;5092538;28;20047;-70
2022/08/20 00:39:59;;;;;;;2.53;1.60;;;;;;;;;;5089924;28;20020;-70
2022/08/20 00:42:47;;;;;;;2.05;1.52;;;;;;;;;;5076079;28;20428;-70
2022/08/20 00:45:34;;;;;;;1.50;1.40;;;;;;;;;;5095731;28;20446;-71
2022/08/20 00:48:20;;;;;;;2.15;1.52;;;;;;;;;;5064256;28;20436;-72
2022/08/20 00:51:27;;;;;;;1.85;1.38;;;;;;;;;;5089508;28;20378;-73
2022/08/20 00:54:19;;;;;;;2.40;1.45;;;;;;;;;;5080540;28;20072;-74
2022/08/20 00:57:06;;;;;;;3.63;1.42;;;;;;;;;;5076402;28;20085;-73
2022/08/20 00:59:52;;;;;;;3.22;1.35;;;;;;;;;;5080049;28;20028;-72
2022/08/20 01:02:38;;;;;;;1.75;1.40;;;;;;;;;;5086377;28;20332;-74
2022/08/20 01:05:26;;;;;;;1.50;1.30;;;;;;;;;;5068357;28;20038;-68
2022/08/20 01:08:13;;;;;;;3.73;1.30;;;;;;;;;;5072530;28;20055;-78
2022/08/20 01:11:24;;;;;;;1.55;1.25;;;;;;;;;;5096090;28;20411;-77
2022/08/20 01:17:16;;;;;;;3.75;1.40;;;;;;;;;;5085115;28;20034;-78
2022/08/20 01:20:17;;;;;;;1.88;1.38;;;;;;;;;;5087673;28;20030;-77
2022/08/20 01:23:28;;;;;;;2.00;1.27;;;;;;;;;;5080027;28;20095;-79
2022/08/20 01:26:19;;;;;;;1.40;1.05;;;;;;;;;;5089395;28;20071;-77
2022/08/20 01:29:13;;;;;;;2.38;1.30;;;;;;;;;;5093373;28;20115;-78
2022/08/20 01:32:01;;;;;;;1.20;1.10;;;;;;;;;;5088292;28;20031;-78
2022/08/20 01:34:46;;;;;;;1.30;1.20;;;;;;;;;;5088357;28;20029;-78
2022/08/20 01:37:32;;;;;;;1.23;1.10;;;;;;;;;;5088956;28;20470;-79
2022/08/20 01:40:26;;;;;;;2.72;1.02;;;;;;;;;;5073276;28;20047;-78
2022/08/20 01:43:12;;;;;;;1.63;1.27;;;;;;;;;;5069229;28;20016;-79
2022/08/20 01:45:58;;;;;;;2.75;1.25;;;;;;;;;;5077462;28;20101;-73
2022/08/20 01:48:43;;;;;;;1.75;1.10;;;;;;;;;;5083927;28;20110;-73
2022/08/20 01:51:29;;;;;;;1.10;1.00;;;;;;;;;;5078975;28;20061;-74
2022/08/20 01:54:15;;;;;;;1.25;1.15;;;;;;;;;;5106609;28;20028;-74
2022/08/20 01:57:12;;;;;;;1.95;1.10;;;;;;;;;;5080620;28;20063;-73
2022/08/20 01:59:58;;;;;;;2.13;1.10;;;;;;;;;;5077932;28;20031;-72
2022/08/20 02:02:43;;;;;;;2.90;1.48;;;;;;;;;;5079861;28;20071;-80
2022/08/20 02:05:30;;;;;;;1.58;1.30;;;;;;;;;;5078337;28;20478;-77
2022/08/20 02:08:15;;;;;;;2.35;1.23;;;;;;;;;;5078854;28;20024;-77
2022/08/20 02:11:01;;;;;;;1.30;1.20;;;;;;;;;;5080961;28;20020;-77
2022/08/20 02:13:51;;;;;;;3.88;1.27;;;;;;;;;;5093071;28;20060;-77
2022/08/20 02:16:38;;;;;;;2.63;1.33;;;;;;;;;;5092381;28;20516;-77
2022/08/20 02:19:30;;;;;;;3.78;1.48;;;;;;;;;;5090746;28;20020;-69
2022/08/20 02:22:15;;;;;;;2.28;1.05;;;;;;;;;;5102258;28;20070;-79
2022/08/20 02:25:01;;;;;;;1.23;1.13;;;;;;;;;;5093937;28;20027;-79
2022/08/20 02:27:48;;;;;;;1.48;1.17;;;;;;;;;;5080557;28;20055;-80
2022/08/20 02:30:36;;;;;;;1.70;1.50;;;;;;;;;;5059361;28;20036;-80
2022/08/20 02:33:23;;;;;;;2.05;0.90;;;;;;;;;;5094026;28;20528;-79
2022/08/20 02:36:09;;;;;;;2.53;1.20;;;;;;;;;;5077300;28;20114;-79
2022/08/20 02:38:55;;;;;;;1.88;1.40;;;;;;;;;;5092226;28;20032;-73
2022/08/20 02:41:41;;;;;;;1.83;1.23;;;;;;;;;;5091165;28;20035;-78
2022/08/20 02:44:26;;;;;;;1.58;1.40;;;;;;;;;;5090831;28;20115;-79
2022/08/20 02:47:12;;;;;;;2.97;1.58;;;;;;;;;;5096821;28;20386;-79
2022/08/20 02:49:58;;;;;;;2.38;1.13;;;;;;;;;;5059420;28;20479;-77
2022/08/20 02:52:44;;;;;;;1.48;1.38;;;;;;;;;;5059385;28;20029;-79
2022/08/20 02:55:29;;;;;;;5.20;1.38;;;;;;;;;;5092429;28;20028;-74
2022/08/20 02:58:16;;;;;;;2.15;1.52;;;;;;;;;;5077339;28;20436;-70
2022/08/20 03:01:03;;;;;;;1.45;1.20;;;;;;;;;;5091212;28;20028;-70
2022/08/20 03:03:48;;;;;;;1.98;1.40;;;;;;;;;;5081083;28;20548;-70
2022/08/20 03:06:34;;;;;;;2.38;1.33;;;;;;;;;;5091339;28;20070;-70
2022/08/20 03:09:19;;;;;;;1.83;1.42;;;;;;;;;;5090108;28;20039;-69
2022/08/20 03:12:06;;;;;;;3.17;1.48;;;;;;;;;;5084252;28;20029;-71
2022/08/20 03:14:52;;;;;;;1.73;1.52;;;;;;;;;;5093690;28;20428;-78
2022/08/20 03:17:37;;;;;;;1.55;1.45;;;;;;;;;;5073952;28;20033;-80
2022/08/20 03:20:24;;;;;;;2.28;1.50;;;;;;;;;;5093267;28;20020;-79
2022/08/20 03:23:10;;;;;;;2.03;1.60;;;;;;;;;;5077057;28;20074;-80
2022/08/20 03:25:55;;;;;;;2.33;1.00;;;;;;;;;;5072324;28;20029;-81
2022/08/20 03:28:41;;;;;;;1.65;1.30;;;;;;;;;;5072941;28;20480;-80
2022/08/20 03:31:28;;;;;;;3.38;1.50;;;;;;;;;;5088313;28;20060;-79
2022/08/20 03:34:14;;;;;;;1.33;1.17;;;;;;;;;;5081488;28;20024;-73
2022/08/20 03:36:59;;;;;;;1.35;1.25;;;;;;;;;;5085157;28;20024;-70
2022/08/20 03:39:45;;;;;;;1.48;1.38;;;;;;;;;;5093155;28;20028;-70
2022/08/20 03:42:31;;;;;;;1.55;1.13;;;;;;;;;;5092844;28;20028;-70
2022/08/20 03:45:18;;;;;;;3.95;1.50;;;;;;;;;;5091553;28;20103;-70
2022/08/20 03:48:06;;;;;;;3.70;1.60;;;;;;;;;;5087428;28;20028;-71
2022/08/20 03:50:51;;;;;;;2.58;1.60;;;;;;;;;;5088830;28;20024;-77
2022/08/20 03:53:37;;;;;;;1.65;1.35;;;;;;;;;;5092991;28;20127;-70
2022/08/20 03:56:23;;;;;;;4.80;1.55;;;;;;;;;;5089603;28;20031;-70
2022/08/20 03:59:09;;;;;;;2.50;1.63;;;;;;;;;;5089423;28;20024;-69
2022/08/20 04:01:55;;;;;;;4.18;1.77;;;;;;;;;;5084788;28;20111;-70
2022/08/20 04:04:40;;;;;;;4.72;1.70;;;;;;;;;;5079781;28;20039;-69
2022/08/20 04:07:26;;;;;;;2.75;1.80;;;;;;;;;;5090389;28;20376;-70
2022/08/20 04:10:12;;;;;;;2.33;1.55;;;;;;;;;;5100627;28;20025;-74
2022/08/20 04:12:57;;;;;;;3.10;1.80;;;;;;;;;;5084145;28;20393;-80
2022/08/20 04:15:44;;;;;;;2.22;1.65;;;;;;;;;;5089117;28;20023;-80
2022/08/20 04:18:29;;;;;;;3.05;1.60;;;;;;;;;;5093602;28;20054;-80
2022/08/20 04:21:15;;;;;;;1.77;1.55;;;;;;;;;;5090089;28;20028;-79
2022/08/20 04:24:01;;;;;;;1.60;1.50;;;;;;;;;;5093864;28;20062;-80
2022/08/20 04:26:47;;;;;;;1.80;1.65;;;;;;;;;;5076272;28;20506;-79
2022/08/20 04:29:33;;;;;;;2.85;1.98;;;;;;;;;;5092688;28;20039;-81
2022/08/20 04:32:20;;;;;;;2.42;1.70;;;;;;;;;;5091457;28;20028;-73
2022/08/20 04:35:07;;;;;;;1.60;1.50;;;;;;;;;;5069786;28;20028;-74
2022/08/20 04:37:57;;;;;;;2.92;1.60;;;;;;;;;;5089412;28;20028;-74
2022/08/20 04:40:56;;;;;;;2.10;1.73;;;;;;;;;;5095743;28;20020;-75
2022/08/20 04:43:42;;;;;;;3.53;2.35;;;;;;;;;;5071551;28;20127;-73
2022/08/20 04:46:28;;;;;;;2.25;1.60;;;;;;;;;;5087646;28;20032;-78
2022/08/20 04:49:13;;;;;;;2.10;1.80;;;;;;;;;;5076391;28;20024;-82
2022/08/20 04:51:59;;;;;;;3.05;1.80;;;;;;;;;;5105085;28;20115;-82
2022/08/20 04:54:45;;;;;;;1.80;1.70;;;;;;;;;;5084485;28;20023;-82
2022/08/20 04:57:31;;;;;;;1.92;1.60;;;;;;;;;;5089090;28;20033;-82
2022/08/20 05:00:17;;;;;;;3.13;1.85;;;;;;;;;;5060358;28;20024;-83
2022/08/20 05:03:03;;;;;;;2.30;1.52;;;;;;;;;;5073803;28;20027;-82
2022/08/20 05:05:49;;;;;;;2.67;1.73;;;;;;;;;;5082099;28;20028;-73
2022/08/20 05:08:37;;;;;;;2.63;1.90;;;;;;;;;;5079879;28;20072;-80
2022/08/20 05:11:23;;;;;;;3.17;1.70;;;;;;;;;;5078884;28;20119;-79
2022/08/20 05:14:09;;;;;;;3.28;1.95;;;;;;;;;;5073316;28;20041;-80
2022/08/20 05:16:56;;;;;;;2.47;1.88;;;;;;;;;;5088454;28;20027;-80
2022/08/20 05:19:41;;;;;;;2.35;2.00;;;;;;;;;;5095475;28;20084;-79
2022/08/20 05:22:27;;;;;;;3.28;1.83;;;;;;;;;;5089493;28;20116;-74
2022/08/20 05:25:13;;;;;;;2.67;1.67;;;;;;;;;;5074402;28;20032;-74
2022/08/20 05:28:00;;;;;;;2.60;1.85;;;;;;;;;;5103427;28;20089;-71
2022/08/20 05:30:46;;;;;;;2.85;2.03;;;;;;;;;;5085205;28;20395;-71
2022/08/20 05:33:32;;;;;;;2.47;2.03;;;;;;;;;;5106891;28;20058;-70
2022/08/20 05:36:17;;;;;;;3.08;1.90;;;;;;;;;;5093433;28;20024;-69
2022/08/20 05:39:03;;;;;;;2.67;2.00;;;;;;;;;;5089950;28;20024;-70
2022/08/20 05:41:49;;;;;;;2.38;1.88;;;;;;;;;;5094197;28;20028;-74
2022/08/20 05:44:36;;;;;;;5.88;2.40;;;;;;;;;;5080071;28;20031;-70
2022/08/20 05:47:22;;;;;;;2.63;2.13;;;;;;;;;;5080964;28;20479;-70
2022/08/20 05:50:09;;;;;;;4.95;2.35;;;;;;;;;;5081572;28;20028;-69
2022/08/20 05:52:55;;;;;;;5.80;1.88;;;;;;;;;;5094469;28;21182;-70
2022/08/20 05:55:41;;;;;;;2.55;2.20;;;;;;;;;;5080963;28;20530;-71
2022/08/20 05:58:29;;;;;;;3.55;2.10;;;;;;;;;;5072474;28;20029;-70
2022/08/20 06:01:15;;;;;;;2.45;2.20;;;;;;;;;;5076636;28;20040;-82
2022/08/20 06:07:05;;;;;;;3.58;2.38;;;;;;;;;;5090027;28;20368;-71
2022/08/20 06:09:51;;;;;;;5.45;2.63;;;;;;;;;;5078446;28;20028;-71
2022/08/20 06:12:37;;;;;;;3.60;2.53;;;;;;;;;;5083827;28;20094;-70
2022/08/20 06:15:22;;;;;;;4.10;2.35;;;;;;;;;;5071585;28;20511;-70
2022/08/20 06:18:08;;;;;;;3.55;2.38;;;;;;;;;;5078443;28;20114;-71
2022/08/20 06:20:54;;;;;;;3.80;2.60;;;;;;;;;;5094557;28;20034;-77
2022/08/20 06:23:41;;;;;;;3.70;2.75;;;;;;;;;;5087728;28;20057;-77
2022/08/20 06:26:26;;;;;;;2.88;2.22;;;;;;;;;;5085337;28;20389;-78
2022/08/20 06:29:12;;;;;;;3.45;2.47;;;;;;;;;;5100932;28;20413;-77
2022/08/20 06:31:58;;;;;;;3.58;2.80;;;;;;;;;;5079006;28;20106;-77
2022/08/20 06:34:44;;;;;;;6.45;2.88;;;;;;;;;;5093946;28;20028;-76
2022/08/20 06:37:31;;;;;;;4.65;2.70;;;;;;;;;;5078035;28;20028;-79
2022/08/20 06:40:18;;;;;;;3.95;2.45;;;;;;;;;;5083872;28;20028;-81
2022/08/20 06:43:05;;;;;;;3.45;2.47;;;;;;;;;;5064748;28;20028;-81
2022/08/20 06:45:50;;;;;;;5.13;2.47;;;;;;;;;;5091338;28;20039;-81
2022/08/20 06:48:37;;;;;;;3.17;2.28;;;;;;;;;;5091939;28;20039;-80
2022/08/20 06:51:22;;;;;;;3.75;2.67;;;;;;;;;;5078085;28;20052;-80
2022/08/20 06:54:08;;;;;;;4.28;2.50;;;;;;;;;;5094293;28;20035;-81
2022/08/20 06:56:53;;;;;;;5.45;2.90;;;;;;;;;;5093218;28;20047;-71
2022/08/20 06:59:40;;;;;;;3.53;2.53;;;;;;;;;;5090950;28;20028;-69
2022/08/20 07:02:26;;;;;;;3.67;2.67;;;;;;;;;;5093268;28;20055;-69
2022/08/20 07:05:11;;;;;;;3.45;2.58;;;;;;;;;;5090897;28;20050;-69
2022/08/20 07:07:57;;;;;;;3.90;2.75;;;;;;;;;;5092378;28;20035;-69
2022/08/20 07:10:43;;;;;;;4.95;3.08;;;;;;;;;;5077559;28;20379;-68
2022/08/20 07:13:29;;;;;;;5.00;3.35;;;;;;;;;;5063076;28;20375;-77
2022/08/20 07:16:16;;;;;;;5.72;2.65;;;;;;;;;;5077752;28;20035;-71
2022/08/20 07:19:02;;;;;;;2.97;2.38;;;;;;;;;;5083842;28;20452;-71
2022/08/20 07:21:48;;;;;;;4.45;2.60;;;;;;;;;;5073017;28;20416;-71
2022/08/20 07:24:33;;;;;;;3.35;2.60;;;;;;;;;;5073152;28;20032;-69
2022/08/20 07:27:21;;;;;;;5.00;2.90;;;;;;;;;;5093342;28;20123;-70
2022/08/20 07:33:13;;;;;;;4.38;3.25;;;;;;;;;;5081886;28;20037;-75
2022/08/20 07:36:00;;;;;;;4.47;3.03;;;;;;;;;;5099570;28;20394;-73
2022/08/20 07:38:49;;;;;;;5.93;2.85;;;;;;;;;;5076663;28;20028;-74
2022/08/20 07:41:35;;;;;;;5.80;2.95;;;;;;;;;;5080853;28;20416;-72
2022/08/20 07:44:21;;;;;;;4.60;2.58;;;;;;;;;;5085974;28;20463;-73
2022/08/20 07:47:07;;;;;;;3.53;2.88;;;;;;;;;;5081576;28;20020;-74
2022/08/20 07:49:52;;;;;;;5.72;2.78;;;;;;;;;;5079806;28;20103;-69
2022/08/20 07:52:38;;;;;;;5.32;2.80;;;;;;;;;;5091136;28;20028;-75
2022/08/20 07:55:23;;;;;;;4.18;2.40;;;;;;;;;;5086359;28;20024;-76
2022/08/20 07:58:11;;;;;;;5.43;2.50;;;;;;;;;;5092800;28;20036;-76
2022/08/20 08:00:57;;;;;;;2.30;2.10;;;;;;;;;;5079964;28;20024;-77
2022/08/20 08:03:42;;;;;;;6.28;2.80;;;;;;;;;;5097141;28;20069;-76
2022/08/20 08:06:29;;;;;;;4.75;2.97;;;;;;;;;;5077836;28;20029;-76
2022/08/20 08:09:15;;;;;;;5.45;3.30;;;;;;;;;;5080716;28;20575;-80
2022/08/20 08:12:01;;;;;;;7.72;2.80;;;;;;;;;;5074835;28;20024;-74
2022/08/20 08:14:48;;;;;;;4.15;2.42;;;;;;;;;;5087251;28;20032;-74
2022/08/20 08:17:33;;;;;;;4.60;3.05;;;;;;;;;;5096214;28;20058;-74
2022/08/20 08:20:20;;;;;;;3.60;3.03;;;;;;;;;;5084310;28;20016;-74
2022/08/20 08:23:09;;;;;;;4.00;2.63;;;;;;;;;;5090605;28;20422;-73
2022/08/20 08:25:55;;;;;;;4.43;2.50;;;;;;;;;;5085371;28;20050;-73
2022/08/20 08:28:42;;;;;;;3.40;2.63;;;;;;;;;;5075818;28;20040;-81
2022/08/20 08:31:28;;;;;;;3.08;2.28;;;;;;;;;;5091536;28;20020;-80
2022/08/20 08:34:14;;;;;;;3.15;2.47;;;;;;;;;;5081972;28;20078;-82
2022/08/20 08:37:01;;;;;;;3.85;2.95;;;;;;;;;;5094901;28;20089;-80
2022/08/20 08:39:47;;;;;;;3.88;2.35;;;;;;;;;;5096756;28;20218;-81
2022/08/20 08:42:42;;;;;;;2.28;1.77;;;;;;;;;;5093558;28;20028;-80
2022/08/20 08:45:33;;;;;;;4.32;2.30;;;;;;;;;;5076085;28;20029;-69
2022/08/20 08:48:18;;;;;;;5.72;2.20;;;;;;;;;;5082484;28;20020;-82
2022/08/20 08:51:23;;;;;;;2.50;1.70;;;;;;;;;;5080335;28;20081;-83
2022/08/20 08:54:34;;;;;;;11.00;2.22;;;;;;;;;;5078223;28;20530;-82
2022/08/20 08:57:19;;;;;;;5.45;3.08;;;;;;;;;;5074899;28;20032;-81
2022/08/20 09:00:12;;;;;;;3.35;2.17;;;;;;;;;;5074377;28;20028;-81
2022/08/20 09:02:58;;;;;;;1.98;1.73;;;;;;;;;;5087872;28;20039;-82
2022/08/20 09:05:47;;;;;;;2.72;2.15;;;;;;;;;;5097286;28;20109;-80
2022/08/20 09:08:39;;;;;;;2.30;2.10;;;;;;;;;;5094672;22;20487;-76
2022/08/20 09:11:24;;;;;;;3.35;2.00;;;;;;;;;;5071911;28;20538;-76
2022/08/20 09:14:10;;;;;;;4.40;2.25;;;;;;;;;;5073870;28;20032;-76
2022/08/20 09:16:55;;;;;;;3.58;2.38;;;;;;;;;;5074027;28;20069;-75
2022/08/20 09:19:42;;;;;;;2.40;2.13;;;;;;;;;;5072191;28;20043;-78
2022/08/20 09:22:28;;;;;;;4.63;2.50;;;;;;;;;;5073146;28;20451;-75
2022/08/20 09:25:13;;;;;;;3.47;1.70;;;;;;;;;;5060261;28;20083;-75
2022/08/20 09:27:59;;;;;;;2.40;1.77;;;;;;;;;;5073982;28;20066;-75
2022/08/20 09:30:45;;;;;;;2.67;1.80;;;;;;;;;;5070636;28;20081;-76
2022/08/20 09:33:30;;;;;;;3.38;2.13;;;;;;;;;;5073216;28;20032;-75
2022/08/20 09:36:16;;;;;;;1.92;1.65;;;;;;;;;;5072147;28;20118;-76
2022/08/20 09:39:01;;;;;;;2.22;1.60;;;;;;;;;;5072408;28;20024;-76
2022/08/20 09:41:47;;;;;;;1.75;1.38;;;;;;;;;;5063415;28;20112;-72
2022/08/20 09:44:33;;;;;;;1.60;1.42;;;;;;;;;;5072696;28;20074;-74
2022/08/20 09:47:18;;;;;;;1.65;1.52;;;;;;;;;;5072673;28;20462;-74
2022/08/20 09:50:04;;;;;;;2.35;1.50;;;;;;;;;;5061726;28;20107;-76
2022/08/20 09:52:51;;;;;;;3.13;1.35;;;;;;;;;;5072399;28;20475;-76
2022/08/20 09:55:38;;;;;;;1.45;1.33;;;;;;;;;;5060792;28;20037;-76
2022/08/20 09:58:31;;;;;;;2.70;1.35;;;;;;;;;;5072959;28;20487;-74
2022/08/20 10:01:17;;;;;;;2.03;1.58;;;;;;;;;;5072009;28;20044;-74
2022/08/20 10:04:02;;;;;;;1.90;1.20;;;;;;;;;;5072656;28;20031;-71
2022/08/20 10:06:48;;;;;;;1.90;1.35;;;;;;;;;;5062740;28;20125;-72
2022/08/20 10:09:34;;;;;;;2.83;1.30;;;;;;;;;;5071037;28;20032;-71
2022/08/20 10:12:20;;;;;;;2.10;1.05;;;;;;;;;;5062146;28;20031;-72
2022/08/20 10:15:06;;;;;;;1.80;1.00;;;;;;;;;;5072164;28;20020;-72
2022/08/20 10:17:52;;;;;;;1.50;1.30;;;;;;;;;;5072232;28;20033;-73
2022/08/20 10:20:37;;;;;;;1.25;1.10;;;;;;;;;;5071499;28;20131;-74
2022/08/20 10:23:23;;;;;;;2.22;1.40;;;;;;;;;;5071616;28;20455;-75
2022/08/20 10:26:09;;;;;;;2.60;1.30;;;;;;;;;;5069523;28;20067;-76
2022/08/20 10:28:55;;;;;;;2.95;1.27;;;;;;;;;;5059798;28;20047;-77
2022/08/20 10:31:40;;;;;;;2.13;1.55;;;;;;;;;;5068495;28;20418;-75
2022/08/20 10:34:26;;;;;;;4.55;2.08;;;;;;;;;;5067177;28;20522;-75
2022/08/20 10:37:16;;;;;;;1.50;1.27;;;;;;;;;;5071050;28;20033;-74
2022/08/20 10:40:02;;;;;;;2.47;1.30;;;;;;;;;;5072059;28;20073;-71
2022/08/20 10:42:48;;;;;;;2.60;0.73;;;;;;;;;;5069574;28;20059;-73
2022/08/20 10:45:33;;;;;;;2.15;0.80;;;;;;;;;;5071205;28;20029;-72
2022/08/20 10:48:19;;;;;;;1.00;0.90;;;;;;;;;;5058900;28;20037;-72
2022/08/20 10:51:05;;;;;;;0.73;0.73;;;;;;;;;;5072209;28;20021;-71
2022/08/20 10:53:50;;;;;;;1.05;0.75;;;;;;;;;;5071881;28;20445;-76
2022/08/20 10:56:36;;;;;;;1.05;0.70;;;;;;;;;;5072572;28;20021;-75
2022/08/20 10:59:22;;;;;;;0.70;0.70;;;;;;;;;;5072062;28;20028;-74
2022/08/20 11:02:07;;;;;;;1.50;1.00;;;;;;;;;;5072527;28;20077;-75
2022/08/20 11:04:53;;;;;;;0.93;0.80;;;;;;;;;;5071700;28;20028;-74
2022/08/20 11:07:40;;;;;;;0.73;0.70;;;;;;;;;;5070823;28;20446;-75
2022/08/20 11:10:27;;;;;;;0.77;0.77;;;;;;;;;;5051495;28;20033;-73
2022/08/20 11:13:13;;;;;;;1.33;0.80;;;;;;;;;;5067211;28;20455;-74
2022/08/20 11:15:59;;;;;;;1.17;0.85;;;;;;;;;;5072437;28;20020;-73
2022/08/20 11:18:45;;;;;;;1.73;0.70;;;;;;;;;;5059793;28;20032;-72
2022/08/20 11:21:30;;;;;;;1.33;0.75;;;;;;;;;;5070941;28;20411;-73
2022/08/20 11:24:17;;;;;;;1.27;0.90;;;;;;;;;;5071571;28;20111;-73
2022/08/20 11:27:04;;;;;;;1.50;0.70;;;;;;;;;;5051776;28;20025;-72
2022/08/20 11:29:50;;;;;;;1.25;0.88;;;;;;;;;;5068992;28;20399;-73
2022/08/20 11:32:36;;;;;;;0.60;0.60;;;;;;;;;;5067402;28;20380;-75
2022/08/20 11:35:22;;;;;;;1.63;0.88;;;;;;;;;;5062105;28;20035;-73
2022/08/20 11:38:08;;;;;;;1.58;0.90;;;;;;;;;;5051260;28;20460;-73
2022/08/20 11:40:53;;;;;;;1.38;0.68;;;;;;;;;;5066957;28;20441;-74
2022/08/20 11:43:39;;;;;;;0.85;0.70;;;;;;;;;;5070728;28;20394;-73
2022/08/20 11:46:25;;;;;;;0.57;0.57;;;;;;;;;;5071610;28;20032;-73
2022/08/20 11:49:10;;;;;;;1.40;0.80;;;;;;;;;;5071239;28;20043;-74
2022/08/20 11:51:56;;;;;;;1.65;0.80;;;;;;;;;;5069368;28;20028;-75
2022/08/20 11:54:43;;;;;;;1.00;0.80;;;;;;;;;;5067203;28;20075;-74
2022/08/20 11:57:30;;;;;;;0.93;0.65;;;;;;;;;;5061352;28;20024;-74
2022/08/20 12:00:20;;;;;;;1.35;0.88;;;;;;;;;;5051501;28;20467;-74
2022/08/20 12:03:06;;;;;;;0.60;0.60;;;;;;;;;;5051094;28;20036;-75
2022/08/20 12:05:52;;;;;;;1.50;0.88;;;;;;;;;;5062890;28;20036;-74
2022/08/20 12:08:37;;;;;;;0.77;0.77;;;;;;;;;;5057442;28;20500;-75
2022/08/20 12:11:23;;;;;;;0.70;0.68;;;;;;;;;;5055834;28;20017;-76
2022/08/20 12:14:09;;;;;;;1.77;1.27;;;;;;;;;;5060074;28;20036;-76
2022/08/20 12:16:54;;;;;;;0.75;0.70;;;;;;;;;;5056129;28;20025;-76
2022/08/20 12:19:41;;;;;;;1.55;0.88;;;;;;;;;;5067882;28;20056;-76
2022/08/20 12:22:27;;;;;;;0.90;0.80;;;;;;;;;;5061093;28;20039;-76
2022/08/20 12:25:13;;;;;;;1.58;0.70;;;;;;;;;;5057075;28;20067;-76
2022/08/20 12:27:58;;;;;;;1.00;0.80;;;;;;;;;;5069751;28;20024;-74
2022/08/20 12:30:44;;;;;;;0.80;0.80;;;;;;;;;;5070900;28;20033;-76
2022/08/20 12:33:29;;;;;;;0.70;0.70;;;;;;;;;;5071629;28;20492;-76
2022/08/20 12:36:15;;;;;;;1.10;0.85;;;;;;;;;;5070389;28;20036;-76
2022/08/20 12:39:01;;;;;;;0.75;0.60;;;;;;;;;;5065726;28;20536;-75
2022/08/20 12:41:46;;;;;;;1.65;1.02;;;;;;;;;;5061833;28;20036;-75
2022/08/20 12:44:32;;;;;;;0.82;0.82;;;;;;;;;;5066393;28;20033;-73
2022/08/20 12:47:18;;;;;;;1.05;0.80;;;;;;;;;;5063111;28;20028;-74
2022/08/20 12:50:05;;;;;;;0.73;0.73;;;;;;;;;;5050881;28;20229;-75
2022/08/20 12:52:51;;;;;;;1.00;0.77;;;;;;;;;;5065873;28;20033;-77
2022/08/20 12:55:37;;;;;;;1.70;1.00;;;;;;;;;;5073362;28;20094;-77
2022/08/20 12:58:22;;;;;;;1.40;1.02;;;;;;;;;;5053581;28;20021;-75
2022/08/20 13:01:08;;;;;;;1.23;1.13;;;;;;;;;;5053557;28;20033;-75
2022/08/20 13:03:53;;;;;;;3.70;1.42;;;;;;;;;;5072336;28;20446;-74
2022/08/20 13:06:39;;;;;;;4.05;1.25;;;;;;;;;;5059636;28;20033;-77
2022/08/20 13:09:24;;;;;;;5.32;1.35;;;;;;;;;;5066074;28;20032;-75
2022/08/20 13:12:10;;;;;;;4.80;1.23;;;;;;;;;;5059131;28;20063;-75
2022/08/20 13:14:56;;;;;;;1.98;1.08;;;;;;;;;;5070991;28;20158;-75
2022/08/20 13:17:42;;;;;;;4.55;1.58;;;;;;;;;;5070744;28;20028;-75
2022/08/20 13:20:28;;;;;;;2.67;1.30;;;;;;;;;;5071430;28;20411;-74
2022/08/20 13:23:14;;;;;;;1.98;1.23;;;;;;;;;;5058127;28;20095;-73
2022/08/20 13:26:00;;;;;;;3.20;1.50;;;;;;;;;;5074647;28;20123;-75
2022/08/20 13:28:45;;;;;;;5.65;1.80;;;;;;;;;;5073466;28;20031;-75
2022/08/20 13:31:31;;;;;;;4.00;1.80;;;;;;;;;;5072238;28;20468;-78
2022/08/20 13:34:16;;;;;;;3.95;1.60;;;;;;;;;;5070377;28;20021;-75
2022/08/20 13:37:09;;;;;;;3.60;1.85;;;;;;;;;;5067291;28;20034;-75
2022/08/20 13:39:56;;;;;;;1.70;1.35;;;;;;;;;;5071499;28;20029;-75
2022/08/20 13:42:41;;;;;;;1.70;1.30;;;;;;;;;;5057891;28;20025;-74
2022/08/20 13:45:27;;;;;;;1.65;1.42;;;;;;;;;;5074022;28;20020;-73
2022/08/20 13:48:12;;;;;;;2.67;1.45;;;;;;;;;;5058904;28;20111;-72
2022/08/20 13:50:58;;;;;;;1.77;1.45;;;;;;;;;;5072306;28;20467;-73
2022/08/20 13:53:44;;;;;;;2.15;1.45;;;;;;;;;;5063912;28;20041;-74
2022/08/20 13:56:29;;;;;;;1.42;1.33;;;;;;;;;;5072519;28;20036;-74
2022/08/20 13:59:15;;;;;;;2.45;1.20;;;;;;;;;;5073231;28;20032;-75
2022/08/20 14:02:00;;;;;;;1.23;1.10;;;;;;;;;;5071255;28;20070;-74
2022/08/20 14:04:47;;;;;;;2.95;1.23;;;;;;;;;;5057991;28;20101;-74
2022/08/20 14:07:33;;;;;;;2.42;1.50;;;;;;;;;;5072660;28;20032;-75
2022/08/20 14:10:21;;;;;;;1.63;1.15;;;;;;;;;;5072662;28;20025;-74
2022/08/20 14:13:06;;;;;;;3.33;1.52;;;;;;;;;;5072271;28;20123;-73
2022/08/20 14:15:53;;;;;;;2.45;1.30;;;;;;;;;;5072922;28;20028;-74
2022/08/20 14:18:38;;;;;;;2.25;1.20;;;;;;;;;;5072017;28;20368;-73
2022/08/20 14:21:24;;;;;;;2.72;1.35;;;;;;;;;;5071220;28;20039;-76
2022/08/20 14:24:10;;;;;;;2.08;1.25;;;;;;;;;;5073351;28;20038;-76
2022/08/20 14:26:55;;;;;;;3.67;1.40;;;;;;;;;;5058695;28;20024;-77
2022/08/20 14:29:42;;;;;;;1.92;1.40;;;;;;;;;;5058387;28;20457;-76
2022/08/20 14:32:27;;;;;;;1.10;1.00;;;;;;;;;;5069025;28;20024;-77
2022/08/20 14:35:13;;;;;;;2.20;1.30;;;;;;;;;;5064242;28;20028;-74
2022/08/20 14:37:59;;;;;;;1.27;1.08;;;;;;;;;;5057971;28;20047;-73
2022/08/20 14:40:44;;;;;;;2.03;1.20;;;;;;;;;;5067484;28;20082;-74
2022/08/20 14:43:30;;;;;;;2.45;1.30;;;;;;;;;;5072190;28;20036;-75
2022/08/20 14:46:15;;;;;;;1.67;1.25;;;;;;;;;;5067885;28;20522;-73
2022/08/20 14:49:01;;;;;;;2.25;1.00;;;;;;;;;;5066789;28;20035;-74
2022/08/20 14:51:46;;;;;;;2.70;1.35;;;;;;;;;;5072916;28;20035;-74
2022/08/20 14:54:32;;;;;;;1.40;1.23;;;;;;;;;;5072746;28;20091;-73
2022/08/20 14:57:18;;;;;;;1.27;1.02;;;;;;;;;;5072333;28;20032;-73
2022/08/20 15:00:08;;;;;;;2.97;1.25;;;;;;;;;;5056696;28;20100;-73
2022/08/20 15:02:54;;;;;;;1.73;1.10;;;;;;;;;;5072099;28;20025;-74
2022/08/20 15:05:39;;;;;;;2.05;1.17;;;;;;;;;;5072093;28;20028;-74
2022/08/20 15:08:25;;;;;;;5.93;2.22;;;;;;;;;;5070841;28;20035;-73
2022/08/20 15:11:11;;;;;;;2.03;1.05;;;;;;;;;;5072489;28;20028;-74
2022/08/20 15:13:57;;;;;;;1.20;1.00;;;;;;;;;;5059898;28;20037;-73
2022/08/20 15:16:42;;;;;;;1.85;1.20;;;;;;;;;;5069210;28;20030;-76
2022/08/20 15:19:28;;;;;;;2.92;1.38;;;;;;;;;;5065756;28;20032;-78
2022/08/20 15:22:14;;;;;;;1.30;1.17;;;;;;;;;;5071796;28;20091;-77
2022/08/20 15:24:59;;;;;;;2.53;1.13;;;;;;;;;;5070337;28;20032;-77
2022/08/20 15:27:45;;;;;;;1.80;1.50;;;;;;;;;;5070182;28;20093;-77
2022/08/20 15:30:32;;;;;;;1.70;1.15;;;;;;;;;;5060675;28;20038;-75
2022/08/20 15:33:17;;;;;;;4.40;1.33;;;;;;;;;;5060985;28;20501;-77
2022/08/20 15:36:06;;;;;;;2.33;1.35;;;;;;;;;;5066221;28;20060;-77
2022/08/20 15:38:52;;;;;;;1.63;1.42;;;;;;;;;;5057729;28;20471;-77
2022/08/20 15:41:37;;;;;;;2.63;1.38;;;;;;;;;;5059712;28;20032;-78
2022/08/20 15:44:23;;;;;;;1.63;1.10;;;;;;;;;;5057300;28;20476;-78
2022/08/20 15:47:15;;;;;;;2.08;1.10;;;;;;;;;;5060658;28;20021;-76
2022/08/20 15:50:02;;;;;;;1.40;1.15;;;;;;;;;;5059334;28;20039;-74
2022/08/20 15:52:48;;;;;;;3.55;1.35;;;;;;;;;;5068372;28;20059;-74
2022/08/20 15:55:36;;;;;;;1.83;1.10;;;;;;;;;;5061967;28;20032;-74
2022/08/20 15:58:45;;;;;;;1.15;0.90;;;;;;;;;;5050175;28;20396;-74
2022/08/20 16:01:46;;;;;;;1.00;0.82;;;;;;;;;;5028500;28;20750;-74
2022/08/20 16:04:49;;;;;;;1.30;0.90;;;;;;;;;;5064873;28;20112;-72
2022/08/20 16:07:50;;;;;;;1.08;0.95;;;;;;;;;;5064095;28;20024;-73
2022/08/20 16:10:47;;;;;;;1.73;1.10;;;;;;;;;;5069809;28;20488;-73
2022/08/20 16:13:36;;;;;;;1.20;1.10;;;;;;;;;;5065570;28;20391;-72
2022/08/20 16:16:30;;;;;;;1.90;1.10;;;;;;;;;;5064755;28;20029;-72
2022/08/20 16:19:26;;;;;;;1.30;1.17;;;;;;;;;;5064453;28;20032;-72
2022/08/20 16:22:13;;;;;;;1.70;0.98;;;;;;;;;;5072050;28;20028;-72
2022/08/20 16:24:59;;;;;;;1.25;1.10;;;;;;;;;;5056507;28;20041;-72
2022/08/20 16:27:48;;;;;;;1.17;0.93;;;;;;;;;;5069236;28;20059;-74
2022/08/20 16:30:33;;;;;;;;;;;;;;;;;;5056003;28;20383;-72
2022/08/20 16:33:33;;;;;;;1.58;1.17;;;;;;;;;;5073143;28;19920;-71
2022/08/20 16:36:32;;;;;;;1.60;1.10;;;;;;;;;;5073455;28;20379;-71
2022/08/20 16:39:24;;;;;;;2.93;1.30;;;;;;;;;;5071469;28;20040;-71
2022/08/20 16:42:09;;;;;;;1.67;1.30;;;;;;;;;;5073991;28;20369;-71
2022/08/20 16:44:55;;;;;;;3.72;1.70;;;;;;;;;;5072366;28;20033;-73
2022/08/20 16:47:41;;;;;;;1.65;1.30;;;;;;;;;;5072278;28;20060;-73
2022/08/20 16:50:44;;;;;;;3.05;1.50;;;;;;;;;;5062703;28;20029;-74